Terminal Aerodrome Forecast
Issued by NWS

Home | Current Version | Previous Version | Text Only | Print | Product List | Glossary On
Versions: 1 2 3 4 5 6 7 8 9 10 11 12 13 14 15 16 17 18 19 20
000
FTUS43 KLSX 140532
TAFUIN
TAF
KUIN 140532Z 1406/1506 34018G28KT P6SM OVC030
     FM140900 33014KT P6SM OVC030
     FM141300 34010KT P6SM SCT030
     FM141600 35008KT P6SM BKN040
     FM150500 25004KT P6SM BKN140=

USA.gov is the U.S. government's official web portal to all federal, state and local government web resources and services.